Time;durP1;ratioP1;P1;durP2;ratioP2;P2;SDS_P1;SDS_P2;PMS_P1;PMS_P2;Temp;Humidity;BMP_temperature;BMP_pressure;BME280_temperature;BME280_humidity;BME280_pressure;Samples;Min_cycle;Max_cycle;Signal;HPM_P1;HPM_P2
2023/11/02 00:02:03;;;;;;;1.00;0.60;;;14.30;99.90;;;;;;5093044;28;20184;-35
2023/11/02 00:04:29;;;;;;;1.02;0.70;;;14.30;99.90;;;;;;5091152;28;20020;-34
2023/11/02 00:06:57;;;;;;;2.03;0.60;;;14.30;99.90;;;;;;5092658;28;20035;-38
2023/11/02 00:09:36;;;;;;;2.10;0.80;;;14.30;99.90;;;;;;5092498;28;20474;-35
2023/11/02 00:12:12;;;;;;;1.33;0.80;;;14.30;99.90;;;;;;5092506;28;20117;-35
2023/11/02 00:14:47;;;;;;;1.30;0.60;;;14.30;99.90;;;;;;5092632;28;20054;-35
2023/11/02 00:17:32;;;;;;;3.63;0.80;;;14.30;99.90;;;;;;5092414;28;20020;-35
2023/11/02 00:19:58;;;;;;;1.42;0.77;;;14.30;99.90;;;;;;5092338;28;20430;-35
2023/11/02 00:22:27;;;;;;;1.35;0.70;;;14.30;99.90;;;;;;5092462;28;20024;-35
2023/11/02 00:24:57;;;;;;;2.30;0.73;;;14.30;99.90;;;;;;5092424;28;20016;-35
2023/11/02 00:27:22;;;;;;;1.20;0.77;;;14.30;99.90;;;;;;5092273;28;20483;-35
2023/11/02 00:29:48;;;;;;;1.73;0.60;;;14.30;99.90;;;;;;5092359;28;20065;-36
2023/11/02 00:32:14;;;;;;;0.75;0.55;;;14.30;99.90;;;;;;5092096;28;20020;-36
2023/11/02 00:34:40;;;;;;;2.50;0.52;;;14.30;99.90;;;;;;5092229;28;20031;-37
2023/11/02 00:37:06;;;;;;;1.60;0.70;;;14.30;99.90;;;;;;5091993;28;20020;-35
2023/11/02 00:39:32;;;;;;;0.82;0.45;;;14.30;99.90;;;;;;5092080;28;20439;-38
2023/11/02 00:41:58;;;;;;;2.67;0.60;;;14.30;99.90;;;;;;5091875;28;20024;-38
2023/11/02 00:44:25;;;;;;;1.10;0.60;;;14.30;99.90;;;;;;5091939;28;20016;-36
2023/11/02 00:46:51;;;;;;;1.08;0.70;;;14.30;99.90;;;;;;5091729;28;20020;-36
2023/11/02 00:49:22;;;;;;;1.08;0.70;;;14.30;99.90;;;;;;5091930;28;20024;-35
2023/11/02 00:51:56;;;;;;;1.00;0.70;;;14.30;99.90;;;;;;5091720;28;20105;-35
2023/11/02 00:54:49;;;;;;;3.67;0.70;;;14.30;99.90;;;;;;5091880;28;20077;-35
2023/11/02 00:57:16;;;;;;;1.80;0.60;;;14.30;99.90;;;;;;5092124;28;20416;-35
2023/11/02 00:59:44;;;;;;;1.20;0.73;;;14.20;99.90;;;;;;5091737;28;20020;-37
2023/11/02 01:02:10;;;;;;;1.67;0.70;;;14.30;99.90;;;;;;5091518;28;20020;-35
2023/11/02 01:04:41;;;;;;;2.15;0.65;;;14.30;99.90;;;;;;5091726;28;20030;-35
2023/11/02 01:07:08;;;;;;;1.00;0.60;;;14.30;99.90;;;;;;5091803;28;20477;-35
2023/11/02 01:09:36;;;;;;;0.77;0.50;;;14.30;99.90;;;;;;5091519;28;20077;-35
2023/11/02 01:12:06;;;;;;;1.13;0.70;;;14.30;99.90;;;;;;5091363;28;20028;-35
2023/11/02 01:14:45;;;;;;;1.02;0.60;;;14.30;99.90;;;;;;5091481;28;20071;-35
2023/11/02 01:17:30;;;;;;;1.10;0.60;;;14.30;99.90;;;;;;5091202;28;20028;-38
2023/11/02 01:20:19;;;;;;;0.80;0.40;;;14.30;99.90;;;;;;5091396;28;20024;-35
2023/11/02 01:23:01;;;;;;;1.35;0.63;;;14.30;99.90;;;;;;5081542;28;20040;-36
2023/11/02 01:25:29;;;;;;;1.88;0.77;;;14.30;99.90;;;;;;5091348;28;20028;-35
2023/11/02 01:27:59;;;;;;;1.27;0.50;;;14.30;99.90;;;;;;5091420;28;20017;-35
2023/11/02 01:30:26;;;;;;;3.08;0.60;;;14.30;99.90;;;;;;5091528;28;20120;-35
2023/11/02 01:32:52;;;;;;;1.15;0.50;;;14.30;99.90;;;;;;5091197;28;20020;-35
2023/11/02 01:35:39;;;;;;;0.70;0.52;;;14.30;99.90;;;;;;5091409;28;20020;-35
2023/11/02 01:38:06;;;;;;;1.00;0.75;;;14.30;99.90;;;;;;5091285;28;20028;-35
2023/11/02 01:40:43;;;;;;;1.08;0.57;;;14.30;99.90;;;;;;5091217;28;20027;-35
2023/11/02 01:43:12;;;;;;;1.63;0.65;;;14.30;99.90;;;;;;5091087;28;20438;-35
2023/11/02 01:45:42;;;;;;;0.63;0.40;;;14.30;99.90;;;;;;5091066;28;20051;-37
2023/11/02 01:48:18;;;;;;;0.80;0.40;;;14.30;99.90;;;;;;5091084;28;20416;-35
2023/11/02 01:50:55;;;;;;;2.00;0.60;;;14.30;99.90;;;;;;5091181;28;20539;-37
2023/11/02 01:53:39;;;;;;;1.45;0.70;;;14.20;99.90;;;;;;5091750;28;20497;-37
2023/11/02 01:56:16;;;;;;;1.15;0.60;;;14.30;99.90;;;;;;5091215;28;20036;-37
2023/11/02 01:59:12;;;;;;;1.95;0.60;;;14.30;99.90;;;;;;5091330;28;20445;-37
2023/11/02 02:01:50;;;;;;;0.93;0.50;;;14.20;99.90;;;;;;5090976;28;20048;-37
2023/11/02 02:04:47;;;;;;;1.27;0.60;;;14.30;99.90;;;;;;5091390;28;20496;-37
2023/11/02 02:07:34;;;;;;;2.00;0.85;;;14.30;99.90;;;;;;5089982;28;20043;-37
2023/11/02 02:10:16;;;;;;;1.88;0.70;;;14.30;99.90;;;;;;5091512;28;20087;-37
2023/11/02 02:12:59;;;;;;;1.25;0.60;;;14.20;99.90;;;;;;5091418;28;20046;-37
2023/11/02 02:15:31;;;;;;;0.97;0.70;;;14.20;99.90;;;;;;5091582;28;20024;-37
2023/11/02 02:18:13;;;;;;;1.40;0.60;;;14.30;99.90;;;;;;5091229;28;20023;-37
2023/11/02 02:20:44;;;;;;;0.95;0.63;;;14.30;99.90;;;;;;5091066;28;20488;-37
2023/11/02 02:23:19;;;;;;;1.55;0.80;;;14.30;99.90;;;;;;5091266;28;20024;-37
2023/11/02 02:26:22;;;;;;;1.30;0.70;;;14.30;99.90;;;;;;5091175;28;20384;-37
2023/11/02 02:29:24;;;;;;;1.70;0.70;;;14.20;99.90;;;;;;5093240;28;20097;-37
2023/11/02 02:32:15;;;;;;;3.05;0.77;;;14.20;99.90;;;;;;5094710;28;20054;-37
2023/11/02 02:35:05;;;;;;;2.90;0.70;;;14.20;99.90;;;;;;5094879;28;20103;-37
2023/11/02 02:37:46;;;;;;;1.67;0.80;;;14.20;99.90;;;;;;5094530;28;20020;-37
2023/11/02 02:40:21;;;;;;;1.92;0.70;;;14.20;99.90;;;;;;5094642;28;20024;-37
2023/11/02 02:42:49;;;;;;;1.23;0.70;;;14.20;99.90;;;;;;5094781;28;20103;-37
2023/11/02 02:45:15;;;;;;;1.67;0.70;;;14.20;99.90;;;;;;5094640;28;20027;-37
2023/11/02 02:47:42;;;;;;;1.38;0.70;;;14.20;99.90;;;;;;5094407;28;20035;-37
2023/11/02 02:50:10;;;;;;;0.95;0.50;;;14.20;99.90;;;;;;5094660;28;20385;-37
2023/11/02 02:52:38;;;;;;;0.75;0.50;;;14.20;99.90;;;;;;5094359;28;20488;-37
2023/11/02 02:55:07;;;;;;;1.42;0.60;;;14.20;99.90;;;;;;5094465;28;20024;-37
2023/11/02 02:57:35;;;;;;;0.82;0.65;;;14.20;99.90;;;;;;5094410;28;20016;-37
2023/11/02 03:00:02;;;;;;;1.80;0.70;;;14.20;99.90;;;;;;5094698;28;20434;-37
2023/11/02 03:02:34;;;;;;;1.45;0.60;;;14.20;99.90;;;;;;5094114;28;20102;-37
2023/11/02 03:05:00;;;;;;;1.65;0.80;;;14.20;99.90;;;;;;5094562;28;20432;-37
2023/11/02 03:07:30;;;;;;;1.60;0.63;;;14.20;99.90;;;;;;5094264;28;20564;-37
2023/11/02 03:10:00;;;;;;;1.45;0.40;;;14.20;99.90;;;;;;5093882;28;20515;-37
2023/11/02 03:12:28;;;;;;;2.08;0.60;;;14.20;99.90;;;;;;5093774;28;20028;-37
2023/11/02 03:14:56;;;;;;;1.27;0.60;;;14.20;99.90;;;;;;5093538;28;20385;-37
2023/11/02 03:17:44;;;;;;;0.75;0.47;;;14.20;99.90;;;;;;5093902;28;20023;-37
2023/11/02 03:20:12;;;;;;;0.95;0.50;;;14.20;99.90;;;;;;5093976;28;20016;-37
2023/11/02 03:22:42;;;;;;;0.50;0.40;;;14.30;99.90;;;;;;5094029;28;20500;-37
2023/11/02 03:25:41;;;;;;;0.82;0.52;;;14.30;99.90;;;;;;5093709;28;20020;-37
2023/11/02 03:28:22;;;;;;;1.20;0.60;;;14.20;99.90;;;;;;5093604;28;20023;-37
2023/11/02 03:31:19;;;;;;;2.90;0.50;;;14.20;99.90;;;;;;5093677;28;20039;-37
2023/11/02 03:33:57;;;;;;;1.15;0.60;;;14.20;99.90;;;;;;5093482;28;20034;-37
2023/11/02 03:36:33;;;;;;;1.48;0.60;;;14.20;99.90;;;;;;5093310;28;20032;-37
2023/11/02 03:39:36;;;;;;;1.40;0.60;;;14.20;99.90;;;;;;5092025;28;20110;-37
2023/11/02 03:42:39;;;;;;;1.52;0.50;;;14.20;99.90;;;;;;5093105;28;20054;-37
2023/11/02 03:45:10;;;;;;;0.50;0.50;;;14.20;99.90;;;;;;5093097;28;20020;-37
2023/11/02 03:47:50;;;;;;;1.20;0.60;;;14.20;99.90;;;;;;5091861;28;20492;-37
2023/11/02 03:50:25;;;;;;;1.20;0.60;;;14.20;99.90;;;;;;5092983;28;20400;-37
2023/11/02 03:52:56;;;;;;;1.95;0.82;;;14.20;99.90;;;;;;5092875;28;20282;-37
2023/11/02 03:55:27;;;;;;;1.33;0.50;;;14.20;99.90;;;;;;5092928;28;20065;-37
2023/11/02 03:58:04;;;;;;;0.95;0.60;;;14.20;99.90;;;;;;5092910;28;20052;-37
2023/11/02 04:00:34;;;;;;;0.70;0.50;;;14.20;99.90;;;;;;5093352;28;20028;-37
2023/11/02 04:03:01;;;;;;;1.30;0.50;;;14.20;99.90;;;;;;5092746;28;20020;-37
2023/11/02 04:05:31;;;;;;;1.35;0.57;;;14.20;99.90;;;;;;5092613;28;20477;-37
2023/11/02 04:08:16;;;;;;;0.82;0.50;;;14.20;99.90;;;;;;5092653;28;20023;-37
2023/11/02 04:11:01;;;;;;;1.88;0.60;;;14.20;99.90;;;;;;5092714;28;20031;-37
2023/11/02 04:13:51;;;;;;;1.30;0.60;;;14.20;99.90;;;;;;5092603;28;20106;-37
2023/11/02 04:16:17;;;;;;;0.85;0.40;;;14.20;99.90;;;;;;5092680;28;20392;-37
2023/11/02 04:18:42;;;;;;;0.57;0.30;;;14.20;99.90;;;;;;5092536;28;20111;-37
2023/11/02 04:21:10;;;;;;;0.90;0.50;;;14.20;99.90;;;;;;5092447;28;20035;-37
2023/11/02 04:23:35;;;;;;;1.02;0.63;;;14.20;99.90;;;;;;5092406;28;20491;-37
2023/11/02 04:26:01;;;;;;;0.98;0.50;;;14.20;99.90;;;;;;5092407;28;20032;-37
2023/11/02 04:28:27;;;;;;;0.70;0.50;;;14.10;99.90;;;;;;5092372;28;20027;-37
2023/11/02 04:30:52;;;;;;;0.77;0.40;;;14.20;99.90;;;;;;5092462;28;20102;-37
2023/11/02 04:33:18;;;;;;;1.33;0.57;;;14.10;99.90;;;;;;5092310;28;20365;-37
2023/11/02 04:35:43;;;;;;;0.82;0.45;;;14.10;99.90;;;;;;5092209;28;20024;-37
2023/11/02 04:38:10;;;;;;;0.57;0.50;;;14.10;99.90;;;;;;5092064;28;20370;-37
2023/11/02 04:40:36;;;;;;;1.02;0.50;;;14.20;99.90;;;;;;5092068;28;20032;-37
2023/11/02 04:43:03;;;;;;;1.35;0.70;;;14.10;99.90;;;;;;5092073;28;20040;-37
2023/11/02 04:45:29;;;;;;;2.35;0.60;;;14.10;99.90;;;;;;5092251;28;20046;-37
2023/11/02 04:47:56;;;;;;;1.73;0.50;;;14.10;99.90;;;;;;5091967;28;20023;-37
2023/11/02 04:50:21;;;;;;;1.30;0.50;;;14.10;99.90;;;;;;5090516;28;20115;-37
2023/11/02 04:52:50;;;;;;;0.77;0.50;;;14.10;99.90;;;;;;5091610;28;20154;-37
2023/11/02 04:55:16;;;;;;;0.63;0.40;;;14.10;99.90;;;;;;5091806;28;20103;-37
2023/11/02 04:57:42;;;;;;;2.05;0.68;;;14.10;99.90;;;;;;5091885;28;20100;-37
2023/11/02 05:00:09;;;;;;;1.05;0.60;;;14.10;99.90;;;;;;5091897;28;20082;-38
2023/11/02 05:02:34;;;;;;;0.90;0.50;;;14.10;99.90;;;;;;5091664;28;20028;-37
2023/11/02 05:05:00;;;;;;;1.27;0.50;;;14.10;99.90;;;;;;5091744;28;20032;-37
2023/11/02 05:07:26;;;;;;;1.08;0.52;;;14.10;99.90;;;;;;5091653;28;20063;-37
2023/11/02 05:09:52;;;;;;;0.93;0.50;;;14.10;99.90;;;;;;5091738;28;20454;-37
2023/11/02 05:12:18;;;;;;;0.52;0.30;;;14.10;99.90;;;;;;5091701;28;20024;-37
2023/11/02 05:14:43;;;;;;;1.27;0.30;;;14.10;99.90;;;;;;5091648;28;20024;-37
2023/11/02 05:17:09;;;;;;;0.90;0.40;;;14.10;99.90;;;;;;5091435;28;20032;-37
2023/11/02 05:19:37;;;;;;;0.80;0.47;;;14.10;99.90;;;;;;5091684;28;20099;-37
2023/11/02 05:22:03;;;;;;;0.85;0.35;;;14.10;99.90;;;;;;5091410;28;20028;-37
2023/11/02 05:24:29;;;;;;;2.15;0.50;;;14.10;99.90;;;;;;5091579;28;20431;-37
2023/11/02 05:26:54;;;;;;;0.90;0.50;;;14.10;99.90;;;;;;5091383;28;20016;-37
2023/11/02 05:29:21;;;;;;;1.25;0.50;;;14.10;99.90;;;;;;5091619;28;20440;-37
2023/11/02 05:31:47;;;;;;;0.85;0.50;;;14.10;99.90;;;;;;5091430;28;20119;-37
2023/11/02 05:34:13;;;;;;;1.20;0.52;;;14.10;99.90;;;;;;5091656;28;20151;-37
2023/11/02 05:36:38;;;;;;;2.08;0.43;;;14.10;99.90;;;;;;5091436;28;20056;-37
2023/11/02 05:39:05;;;;;;;0.93;0.40;;;14.10;99.90;;;;;;5091605;28;20081;-37
2023/11/02 05:41:31;;;;;;;0.52;0.38;;;14.10;99.90;;;;;;5091341;28;20027;-37
2023/11/02 05:43:57;;;;;;;1.05;0.50;;;14.10;99.90;;;;;;5091623;28;20025;-37
2023/11/02 05:46:23;;;;;;;2.15;0.55;;;14.10;99.90;;;;;;5091309;28;20044;-37
2023/11/02 05:48:48;;;;;;;1.13;0.60;;;14.10;99.90;;;;;;5091566;28;20031;-37
2023/11/02 05:51:14;;;;;;;0.80;0.40;;;14.10;99.90;;;;;;5091044;28;20370;-37
2023/11/02 05:53:40;;;;;;;4.32;0.60;;;14.10;99.90;;;;;;5090053;28;20028;-37
2023/11/02 05:56:06;;;;;;;1.05;0.63;;;14.10;99.90;;;;;;5091232;28;20046;-37
2023/11/02 05:58:32;;;;;;;0.90;0.50;;;14.10;99.90;;;;;;5091175;28;20384;-37
2023/11/02 06:00:57;;;;;;;0.63;0.50;;;14.10;99.90;;;;;;5091074;28;20119;-37
2023/11/02 06:03:26;;;;;;;0.68;0.43;;;14.10;99.90;;;;;;5092830;28;20099;-37
2023/11/02 06:05:52;;;;;;;1.13;0.50;;;14.10;99.90;;;;;;5095060;28;20020;-37
2023/11/02 06:08:18;;;;;;;0.68;0.40;;;14.10;99.90;;;;;;5095150;28;20100;-37
2023/11/02 06:10:44;;;;;;;0.55;0.40;;;14.10;99.90;;;;;;5095108;28;20103;-37
2023/11/02 06:13:09;;;;;;;0.57;0.50;;;14.10;99.90;;;;;;5095028;28;20028;-37
2023/11/02 06:15:36;;;;;;;1.23;0.70;;;14.10;99.90;;;;;;5095045;28;20113;-37
2023/11/02 06:18:02;;;;;;;1.60;0.80;;;14.10;99.90;;;;;;5094909;28;20020;-37
2023/11/02 06:20:27;;;;;;;1.15;0.50;;;14.10;99.90;;;;;;5094845;28;20036;-37
2023/11/02 06:22:53;;;;;;;1.45;0.60;;;14.10;99.90;;;;;;5094819;28;20020;-37
2023/11/02 06:25:21;;;;;;;2.75;0.52;;;14.10;99.90;;;;;;5094825;28;20024;-37
2023/11/02 06:27:47;;;;;;;1.98;0.57;;;14.10;99.90;;;;;;5094860;28;20023;-37
2023/11/02 06:30:13;;;;;;;1.27;0.65;;;14.10;99.90;;;;;;5094879;28;20084;-37
2023/11/02 06:32:39;;;;;;;1.38;0.50;;;14.10;99.90;;;;;;5094411;28;20545;-37
2023/11/02 06:35:05;;;;;;;1.80;0.90;;;14.10;99.90;;;;;;5094862;28;20073;-37
2023/11/02 06:37:31;;;;;;;0.88;0.60;;;14.10;99.90;;;;;;5095034;28;20169;-37
2023/11/02 06:39:56;;;;;;;1.63;0.70;;;14.10;99.90;;;;;;5095166;28;20124;-37
2023/11/02 06:42:24;;;;;;;1.30;0.50;;;14.10;99.90;;;;;;5094921;28;20177;-37
2023/11/02 06:44:50;;;;;;;1.90;0.65;;;14.10;99.90;;;;;;5094921;28;20020;-37
2023/11/02 06:47:15;;;;;;;0.88;0.50;;;14.10;99.90;;;;;;5094499;28;20165;-37
2023/11/02 06:49:41;;;;;;;1.75;0.55;;;14.10;99.90;;;;;;5095057;28;20024;-37
2023/11/02 06:52:07;;;;;;;1.05;0.63;;;14.10;99.90;;;;;;5094629;28;20039;-37
2023/11/02 06:54:33;;;;;;;1.23;0.60;;;14.10;99.90;;;;;;5094780;28;20036;-37
2023/11/02 06:56:59;;;;;;;0.75;0.52;;;14.10;99.90;;;;;;5094609;28;20055;-37
2023/11/02 06:59:25;;;;;;;1.83;0.90;;;14.10;99.90;;;;;;5094786;28;20082;-37
2023/11/02 07:01:52;;;;;;;2.55;1.27;;;14.10;99.90;;;;;;5094418;28;20662;-37
2023/11/02 07:04:19;;;;;;;1.48;0.80;;;14.10;99.90;;;;;;5094498;28;20044;-37
2023/11/02 07:06:46;;;;;;;2.05;0.90;;;14.10;99.90;;;;;;5094460;28;20381;-37
2023/11/02 07:09:11;;;;;;;2.05;1.02;;;14.10;99.90;;;;;;5094486;28;20020;-37
2023/11/02 07:11:37;;;;;;;1.60;0.90;;;14.10;99.90;;;;;;5094564;28;20020;-37
2023/11/02 07:14:02;;;;;;;1.35;0.73;;;14.10;99.90;;;;;;5094190;28;20469;-37
2023/11/02 07:16:28;;;;;;;2.03;0.90;;;14.10;99.90;;;;;;5093507;28;20078;-37
2023/11/02 07:18:55;;;;;;;1.77;1.00;;;14.00;99.90;;;;;;5093772;28;20085;-37
2023/11/02 07:21:21;;;;;;;1.50;0.75;;;14.10;99.90;;;;;;5093493;28;20024;-37
2023/11/02 07:23:49;;;;;;;1.65;1.08;;;14.10;99.90;;;;;;5092230;28;20461;-37
2023/11/02 07:26:15;;;;;;;1.70;0.95;;;14.10;99.90;;;;;;5093412;28;20028;-37
2023/11/02 07:28:41;;;;;;;1.50;0.80;;;14.00;99.90;;;;;;5093524;28;20020;-37
2023/11/02 07:31:07;;;;;;;2.00;0.95;;;14.00;99.90;;;;;;5093189;28;20473;-37
2023/11/02 07:33:35;;;;;;;1.70;1.20;;;14.10;99.90;;;;;;5093432;28;20024;-37
2023/11/02 07:36:00;;;;;;;2.10;1.05;;;14.10;99.90;;;;;;5093310;28;20472;-37
2023/11/02 07:38:26;;;;;;;4.07;1.00;;;14.10;99.90;;;;;;5093284;28;20038;-37
2023/11/02 07:40:52;;;;;;;2.17;1.20;;;14.10;99.90;;;;;;5093137;28;20052;-37
2023/11/02 07:43:18;;;;;;;2.33;0.90;;;14.10;99.90;;;;;;5093378;28;20480;-37
2023/11/02 07:45:43;;;;;;;1.27;0.98;;;14.10;99.90;;;;;;5093050;28;20062;-37
2023/11/02 07:48:09;;;;;;;1.48;1.00;;;14.00;99.90;;;;;;5093124;28;20052;-37
2023/11/02 07:50:34;;;;;;;2.25;1.05;;;14.00;99.90;;;;;;5093260;28;20054;-37
2023/11/02 07:53:00;;;;;;;1.13;0.85;;;14.00;99.90;;;;;;5093359;28;20032;-37
2023/11/02 07:55:26;;;;;;;1.45;0.90;;;14.10;99.90;;;;;;5092864;28;20032;-37
2023/11/02 07:57:51;;;;;;;1.30;0.77;;;14.00;99.90;;;;;;5092798;28;20032;-37
2023/11/02 08:00:18;;;;;;;1.40;0.90;;;14.10;99.90;;;;;;5093097;28;20026;-37
2023/11/02 08:02:44;;;;;;;1.77;1.02;;;14.10;99.90;;;;;;5092683;28;20021;-37
2023/11/02 08:05:10;;;;;;;2.05;1.20;;;14.10;99.90;;;;;;5092616;28;20027;-37
2023/11/02 08:07:35;;;;;;;2.42;1.33;;;14.00;99.90;;;;;;5092609;28;20020;-37
2023/11/02 08:10:01;;;;;;;3.00;1.30;;;14.00;99.90;;;;;;5092589;28;20097;-37
2023/11/02 08:12:27;;;;;;;1.92;1.10;;;14.10;99.90;;;;;;5092484;28;20420;-37
2023/11/02 08:14:53;;;;;;;2.17;1.17;;;14.00;99.90;;;;;;5092287;28;20077;-37
2023/11/02 08:17:21;;;;;;;2.65;1.00;;;14.00;99.90;;;;;;5092406;28;20366;-37
2023/11/02 08:19:47;;;;;;;2.10;1.13;;;14.00;99.90;;;;;;5092471;28;20042;-37
2023/11/02 08:22:13;;;;;;;2.75;1.20;;;14.00;99.90;;;;;;5092450;28;20036;-37
2023/11/02 08:24:38;;;;;;;2.22;0.95;;;14.00;99.90;;;;;;5092458;28;20051;-37
2023/11/02 08:27:05;;;;;;;1.50;1.10;;;14.00;99.90;;;;;;5091449;28;20448;-37
2023/11/02 08:29:31;;;;;;;1.23;0.90;;;14.00;99.90;;;;;;5092128;28;20024;-37
2023/11/02 08:31:57;;;;;;;1.67;0.90;;;14.00;99.90;;;;;;5092311;28;20028;-37
2023/11/02 08:34:23;;;;;;;1.50;0.82;;;14.00;99.90;;;;;;5092344;28;20039;-37
2023/11/02 08:36:49;;;;;;;2.25;1.10;;;14.00;99.90;;;;;;5091967;28;20103;-37
2023/11/02 08:39:15;;;;;;;2.30;1.10;;;14.00;99.90;;;;;;5092200;28;20085;-37
2023/11/02 08:41:41;;;;;;;2.55;1.02;;;14.00;99.90;;;;;;5091881;28;20036;-37
2023/11/02 08:44:06;;;;;;;1.30;0.90;;;14.00;99.90;;;;;;5091796;28;20027;-37
2023/11/02 08:46:34;;;;;;;1.50;1.00;;;14.00;99.90;;;;;;5090619;28;20031;-37
2023/11/02 08:48:59;;;;;;;1.45;0.82;;;14.00;99.90;;;;;;5091912;28;20516;-37
2023/11/02 08:51:25;;;;;;;1.10;0.80;;;14.00;99.90;;;;;;5091718;28;20024;-38
2023/11/02 08:53:51;;;;;;;2.28;1.25;;;14.00;99.90;;;;;;5091871;28;20034;-37
2023/11/02 08:56:18;;;;;;;2.20;0.90;;;14.00;99.90;;;;;;5091771;28;20020;-37
2023/11/02 08:58:52;;;;;;;2.08;1.20;;;14.00;99.90;;;;;;5091693;28;20032;-37
2023/11/02 09:01:28;;;;;;;1.40;0.80;;;14.00;99.90;;;;;;5091644;28;20121;-37
2023/11/02 09:03:56;;;;;;;1.13;1.00;;;14.00;99.90;;;;;;5091766;28;20018;-37
2023/11/02 09:06:23;;;;;;;1.45;0.70;;;14.00;99.90;;;;;;5091497;28;20016;-37
2023/11/02 09:08:49;;;;;;;1.35;0.85;;;14.00;99.90;;;;;;5091630;28;20059;-38
2023/11/02 09:11:16;;;;;;;1.70;0.90;;;14.00;99.90;;;;;;5091395;28;20039;-37
2023/11/02 09:13:42;;;;;;;1.45;0.95;;;14.00;99.90;;;;;;5091734;28;20093;-37
2023/11/02 09:16:09;;;;;;;1.20;0.80;;;14.00;99.90;;;;;;5091407;28;20103;-37
2023/11/02 09:18:35;;;;;;;1.63;0.80;;;14.00;99.90;;;;;;5091730;28;20038;-37
2023/11/02 09:21:01;;;;;;;1.90;1.08;;;14.00;99.90;;;;;;5091770;28;20038;-37
2023/11/02 09:23:27;;;;;;;1.10;0.80;;;14.00;99.90;;;;;;5091528;28;20012;-37
2023/11/02 09:25:53;;;;;;;1.33;0.82;;;14.00;99.90;;;;;;5091408;28;20107;-37
2023/11/02 09:28:19;;;;;;;1.23;0.68;;;14.00;99.90;;;;;;5091396;28;20028;-38
2023/11/02 09:30:46;;;;;;;2.25;1.00;;;14.00;99.90;;;;;;5091458;28;20024;-37
2023/11/02 09:33:12;;;;;;;2.03;1.02;;;14.00;99.90;;;;;;5091319;28;20107;-37
2023/11/02 09:35:39;;;;;;;2.35;0.80;;;14.00;99.90;;;;;;5091237;28;20429;-37
2023/11/02 09:38:05;;;;;;;1.55;0.80;;;14.00;99.90;;;;;;5094177;28;20028;-37
2023/11/02 09:40:33;;;;;;;2.30;0.98;;;14.00;99.90;;;;;;5095492;28;20107;-37
2023/11/02 09:43:03;;;;;;;1.25;0.85;;;14.00;99.90;;;;;;5095491;28;20469;-37
2023/11/02 09:45:30;;;;;;;1.83;0.93;;;14.00;99.90;;;;;;5095347;28;20020;-37
2023/11/02 09:47:58;;;;;;;7.28;0.93;;;14.00;99.90;;;;;;5095451;28;20107;-37
2023/11/02 09:50:25;;;;;;;1.63;1.00;;;14.00;99.90;;;;;;5095359;28;20036;-37
2023/11/02 09:52:53;;;;;;;1.30;1.00;;;14.00;99.90;;;;;;5095016;28;20020;-37
2023/11/02 09:55:20;;;;;;;1.15;0.82;;;14.00;99.90;;;;;;5095224;28;20381;-37
2023/11/02 09:57:46;;;;;;;1.60;1.00;;;14.00;99.90;;;;;;5095189;28;20016;-37
2023/11/02 10:00:12;;;;;;;1.98;1.10;;;14.00;99.90;;;;;;5095255;28;20027;-37
2023/11/02 10:02:40;;;;;;;1.20;0.70;;;13.90;99.90;;;;;;5095051;28;20102;-37
2023/11/02 10:05:08;;;;;;;1.55;1.00;;;14.00;99.90;;;;;;5095061;28;20534;-37
2023/11/02 10:07:35;;;;;;;2.15;1.00;;;14.00;99.90;;;;;;5095307;28;20032;-37
2023/11/02 10:10:03;;;;;;;1.63;1.00;;;14.00;99.90;;;;;;5095072;28;20020;-37
2023/11/02 10:12:31;;;;;;;2.38;1.05;;;14.00;99.90;;;;;;5094647;28;20043;-37
2023/11/02 10:14:57;;;;;;;2.55;1.15;;;14.00;99.90;;;;;;5094911;28;20488;-37
2023/11/02 10:17:23;;;;;;;2.50;1.20;;;14.00;99.90;;;;;;5094851;28;20036;-37
2023/11/02 10:19:49;;;;;;;1.27;0.77;;;14.00;99.90;;;;;;5094622;28;20070;-37
2023/11/02 10:22:16;;;;;;;1.70;1.10;;;14.00;99.90;;;;;;5094582;28;20448;-37
2023/11/02 10:24:42;;;;;;;1.40;1.10;;;14.00;99.90;;;;;;5094916;28;20031;-37
2023/11/02 10:27:10;;;;;;;2.53;1.00;;;14.00;99.90;;;;;;5094738;28;20020;-37
2023/11/02 10:29:36;;;;;;;1.92;1.17;;;14.00;99.90;;;;;;5094608;28;20020;-37
2023/11/02 10:32:03;;;;;;;1.58;1.00;;;14.00;99.90;;;;;;5095036;28;20157;-37
2023/11/02 10:34:29;;;;;;;1.55;1.13;;;14.00;99.90;;;;;;5094473;28;20027;-37
2023/11/02 10:36:56;;;;;;;1.65;0.95;;;14.00;99.90;;;;;;5094607;28;20028;-38
2023/11/02 10:39:23;;;;;;;1.50;0.90;;;14.00;99.90;;;;;;5094530;28;20024;-37
2023/11/02 10:42:00;;;;;;;2.17;0.90;;;14.00;99.90;;;;;;5094193;28;20062;-37
2023/11/02 10:44:30;;;;;;;3.65;1.40;;;14.00;99.90;;;;;;5094581;28;20036;-37
2023/11/02 10:47:04;;;;;;;2.33;1.00;;;13.90;99.90;;;;;;5094104;28;20047;-37
2023/11/02 10:49:33;;;;;;;2.15;0.90;;;14.00;99.90;;;;;;5093587;28;20063;-37
2023/11/02 10:52:03;;;;;;;1.80;0.95;;;14.00;99.90;;;;;;5094208;28;20032;-37
2023/11/02 10:54:44;;;;;;;1.60;1.02;;;14.00;99.90;;;;;;5094023;28;20027;-37
2023/11/02 10:57:18;;;;;;;2.85;1.13;;;14.00;99.90;;;;;;5094021;28;20032;-37
2023/11/02 10:59:44;;;;;;;2.20;1.00;;;13.90;99.90;;;;;;5093009;28;20032;-37
2023/11/02 11:02:13;;;;;;;1.08;0.80;;;14.00;99.90;;;;;;5093799;28;20039;-37
2023/11/02 11:04:43;;;;;;;1.42;0.82;;;14.00;99.90;;;;;;5093998;28;20161;-37
2023/11/02 11:07:10;;;;;;;2.50;0.90;;;14.00;99.90;;;;;;5093798;28;20473;-37
2023/11/02 11:09:36;;;;;;;2.38;0.98;;;14.00;99.90;;;;;;5093884;28;20545;-37
2023/11/02 11:12:04;;;;;;;1.58;0.80;;;14.00;99.90;;;;;;5093626;28;20056;-37
2023/11/02 11:14:30;;;;;;;1.80;0.80;;;14.00;99.90;;;;;;5093661;28;20031;-37
2023/11/02 11:16:57;;;;;;;1.60;0.90;;;14.00;99.90;;;;;;5093707;28;20060;-37
2023/11/02 11:19:23;;;;;;;1.00;0.80;;;14.00;99.90;;;;;;5093650;28;20111;-37
2023/11/02 11:21:51;;;;;;;1.27;0.70;;;14.00;99.90;;;;;;5093850;28;20557;-37
2023/11/02 11:24:17;;;;;;;1.17;0.80;;;14.00;99.90;;;;;;5093524;28;20024;-37
2023/11/02 11:26:46;;;;;;;1.55;0.80;;;14.00;99.90;;;;;;5093407;28;20070;-37
2023/11/02 11:29:40;;;;;;;1.27;0.75;;;14.00;99.90;;;;;;5093547;28;20103;-37
2023/11/02 11:32:08;;;;;;;1.75;0.90;;;13.90;99.90;;;;;;5093490;28;20034;-37
2023/11/02 11:34:55;;;;;;;1.48;0.80;;;14.00;99.90;;;;;;5093441;28;20107;-37
2023/11/02 11:37:37;;;;;;;1.63;0.88;;;14.00;99.90;;;;;;5093279;28;20024;-37
2023/11/02 11:40:05;;;;;;;1.10;0.70;;;14.00;99.90;;;;;;5093343;28;20515;-37
2023/11/02 11:45:36;;;;;;;2.60;0.93;;;13.90;99.90;;;;;;5093375;28;20020;-37
2023/11/02 11:48:06;;;;;;;2.00;0.95;;;14.00;99.90;;;;;;5093217;28;20028;-37
2023/11/02 11:50:40;;;;;;;1.58;1.10;;;14.00;99.90;;;;;;5093258;28;20022;-37
2023/11/02 11:53:23;;;;;;;1.77;1.10;;;13.90;99.90;;;;;;5093043;28;20169;-38
2023/11/02 11:55:50;;;;;;;1.42;0.90;;;13.90;99.90;;;;;;5092718;28;20058;-37
2023/11/02 11:58:19;;;;;;;1.10;0.90;;;14.00;99.90;;;;;;5093217;28;20032;-37
2023/11/02 12:00:51;;;;;;;2.50;0.95;;;14.00;99.90;;;;;;5091960;28;20583;-37
2023/11/02 12:03:35;;;;;;;3.60;0.90;;;14.00;99.90;;;;;;5091890;28;20043;-37
2023/11/02 12:06:12;;;;;;;1.05;0.80;;;13.90;99.90;;;;;;5092625;28;20055;-37
2023/11/02 12:08:48;;;;;;;2.63;1.20;;;13.90;99.90;;;;;;5092704;28;20038;-37
2023/11/02 12:11:21;;;;;;;0.95;0.70;;;13.90;99.90;;;;;;5092864;28;20044;-37
2023/11/02 12:13:51;;;;;;;1.88;1.23;;;13.90;99.90;;;;;;5092780;28;20024;-37
2023/11/02 12:16:20;;;;;;;2.72;1.00;;;13.90;99.90;;;;;;5092697;28;20028;-37
2023/11/02 12:18:48;;;;;;;1.60;0.95;;;13.90;99.90;;;;;;5092548;28;20028;-37
2023/11/02 12:21:19;;;;;;;1.10;1.00;;;13.90;99.90;;;;;;5092361;28;20103;-37
2023/11/02 12:23:46;;;;;;;1.90;1.10;;;14.00;99.90;;;;;;5092482;28;20024;-37
2023/11/02 12:26:12;;;;;;;2.47;1.10;;;13.90;99.90;;;;;;5092394;28;20078;-37
2023/11/02 12:28:46;;;;;;;1.55;1.13;;;13.90;99.90;;;;;;5092533;28;20020;-37
2023/11/02 12:31:12;;;;;;;;;;;13.90;99.90;;;;;;5092642;28;20089;-37
2023/11/02 12:33:38;;;;;;;2.42;1.15;;;13.90;99.90;;;;;;5092317;28;19904;-37
2023/11/02 12:36:05;;;;;;;1.80;1.13;;;13.90;99.90;;;;;;5092156;28;20031;-37
2023/11/02 12:38:44;;;;;;;2.92;1.15;;;13.90;99.90;;;;;;5092209;28;20501;-37
2023/11/02 12:41:12;;;;;;;1.83;1.05;;;13.90;99.90;;;;;;5092162;28;20028;-37
2023/11/02 12:43:40;;;;;;;2.22;1.10;;;13.90;99.90;;;;;;5092051;28;20161;-39
2023/11/02 12:46:08;;;;;;;1.23;0.90;;;13.90;99.90;;;;;;5091970;28;20016;-39
2023/11/02 12:48:39;;;;;;;1.50;0.90;;;13.90;99.90;;;;;;5092013;28;20093;-38
2023/11/02 12:51:22;;;;;;;1.77;1.00;;;13.90;99.90;;;;;;5091764;28;20028;-35
2023/11/02 12:53:49;;;;;;;2.00;1.00;;;13.90;99.90;;;;;;5091877;28;20040;-37
2023/11/02 12:56:25;;;;;;;1.70;1.15;;;13.90;99.90;;;;;;5091778;28;20031;-35
2023/11/02 12:59:07;;;;;;;0.95;0.77;;;13.90;99.90;;;;;;5091854;28;20381;-36
2023/11/02 13:01:57;;;;;;;2.47;1.00;;;13.90;99.90;;;;;;5091603;28;20512;-35
2023/11/02 13:04:46;;;;;;;1.63;0.98;;;13.90;99.90;;;;;;5090483;28;20024;-36
2023/11/02 13:07:28;;;;;;;1.80;0.80;;;13.90;99.90;;;;;;5091538;28;20107;-35